Language: 


Des rapports , des résumés tant et plus, au choix de chacun....


Données statistiques de la station
Quotidien Rapport Janvier 19, 2017 Unités:  les deux    Anglais   Métrique
« Précédent Jour
Suivant Jour »
Quotidien Hebdomadaire Mensuel Annuel Actuel
  Haut: Bas: Moyen:
Température: TemperatureC °F /  -17.8 °C -3.2 °F /  -19.6 °C -0.5 °F /  -18.1 °C
Pt de rosée: DewpointC °F /  -17.8 °C -5.1 °F /  -20.6 °C -3.4 °F /  -19.7 °C
Humidité: Humidity % 0 % 82 %
Vitesse du vent: WindSpeedKMH mph /  0 km/h - 8.9 mph /  14.3 km/h
Rafales: WindSpeedGustKMH mph /  0 km/h - -
Vent:- - NE
Pression: PressurehPa in /  0 hPa 1033.1 in /  34980.8 hPa -
Précipitation: 0.0 in /  0 mm    
Historical Graphs
 
 
Données statistiques pour Janvier 19, 2017
Heure Température Point de rosée Pression Vent Vitesse du vent Refales Humidité Pluie (taux horaire)
TemperatureC °F /  -17.8 °C DewpointC °F /  -17.8 °C PressurehPa in /  0 hPa Calm     Humidity % HourlyPrecipMM in /  0 mm
00:03 -2.6 °F /  -19.2 °C -3.2 °F /  -19.6 °C 1036.1 in /  35082.3 hPa NNE 7.6 mph /  12.2 km/h 9.3 mph /  15 km/h 95 % 0.0 in /  0 mm
00:08 -2.4 °F /  -19.1 °C -3.0 °F /  -19.4 °C 1036.1 in /  35082.3 hPa NE 6.1 mph /  9.8 km/h 9.3 mph /  15 km/h 96 % 0.0 in /  0 mm
00:13 -2.6 °F /  -19.2 °C -3.2 °F /  -19.6 °C 1036.1 in /  35082.3 hPa NNE 6.9 mph /  11.1 km/h 10.1 mph /  16.3 km/h 95 % 0.0 in /  0 mm
00:18 -2.7 °F /  -19.3 °C -3.3 °F /  -19.6 °C 1036.1 in /  35082.3 hPa NE 10.5 mph /  16.9 km/h 11.9 mph /  19.2 km/h 95 % 0.0 in /  0 mm
00:23 -2.6 °F /  -19.2 °C -3.1 °F /  -19.5 °C 1036.1 in /  35082.3 hPa North 9.3 mph /  15 km/h 12.6 mph /  20.3 km/h 96 % 0.0 in /  0 mm
00:28 -2.6 °F /  -19.2 °C -3.1 °F /  -19.5 °C 1036.1 in /  35082.3 hPa NNE 7.9 mph /  12.7 km/h 12.6 mph /  20.3 km/h 96 % 0.0 in /  0 mm
00:33 -2.6 °F /  -19.2 °C -3.1 °F /  -19.5 °C 1036.1 in /  35082.3 hPa NNE 9.3 mph /  15 km/h 12.6 mph /  20.3 km/h 96 % 0.0 in /  0 mm
00:38 -2.6 °F /  -19.2 °C -3.1 °F /  -19.5 °C 1036.1 in /  35082.3 hPa NNE 7.9 mph /  12.7 km/h 12.6 mph /  20.3 km/h 96 % 0.0 in /  0 mm
00:43 -2.6 °F /  -19.2 °C -3.1 °F /  -19.5 °C 1036.1 in /  35082.3 hPa NNE 6.9 mph /  11.1 km/h 10.5 mph /  16.9 km/h 96 % 0.0 in /  0 mm
00:48 -2.7 °F /  -19.3 °C -3.2 °F /  -19.6 °C 1036.1 in /  35082.3 hPa NE 6.1 mph /  9.8 km/h 10.5 mph /  16.9 km/h 96 % 0.0 in /  0 mm
00:53 -2.7 °F /  -19.3 °C -3.2 °F /  -19.6 °C 1036.1 in /  35082.3 hPa NNE 10.1 mph /  16.3 km/h 10.5 mph /  16.9 km/h 96 % 0.0 in /  0 mm
00:58 -2.7 °F /  -19.3 °C -3.2 °F /  -19.6 °C 1036.1 in /  35082.3 hPa NNE 5.0 mph /  8 km/h 10.1 mph /  16.3 km/h 96 % 0.0 in /  0 mm
01:03 -2.7 °F /  -19.3 °C -3.2 °F /  -19.6 °C 1036.1 in /  35082.3 hPa ENE 6.9 mph /  11.1 km/h 10.1 mph /  16.3 km/h 96 % 0.0 in /  0 mm
01:08 -2.7 °F /  -19.3 °C -3.3 °F /  -19.6 °C 1035.1 in /  35048.5 hPa NNE 10.1 mph /  16.3 km/h 10.1 mph /  16.3 km/h 96 % 0.0 in /  0 mm
01:13 -2.7 °F /  -19.3 °C -3.4 °F /  -19.7 °C 1035.1 in /  35048.5 hPa NNE 8.7 mph /  14 km/h 10.1 mph /  16.3 km/h 95 % 0.0 in /  0 mm
01:18 -2.7 °F /  -19.3 °C -3.3 °F /  -19.6 °C 1035.1 in /  35048.5 hPa NNE 10.1 mph /  16.3 km/h 10.1 mph /  16.3 km/h 96 % 0.0 in /  0 mm
01:23 -2.7 °F /  -19.3 °C -3.3 °F /  -19.6 °C 1035.1 in /  35048.5 hPa NE 10.1 mph /  16.3 km/h 10.5 mph /  16.9 km/h 96 % 0.0 in /  0 mm
01:28 -2.7 °F /  -19.3 °C -3.3 °F /  -19.6 °C 1035.1 in /  35048.5 hPa NE 9.7 mph /  15.6 km/h 10.5 mph /  16.9 km/h 96 % 0.0 in /  0 mm
01:33 -2.7 °F /  -19.3 °C -3.3 °F /  -19.6 °C 1035.1 in /  35048.5 hPa NNE 7.9 mph /  12.7 km/h 10.5 mph /  16.9 km/h 96 % 0.0 in /  0 mm
01:38 -2.7 °F /  -19.3 °C -3.3 °F /  -19.6 °C 1035.1 in /  35048.5 hPa NE 9.3 mph /  15 km/h 12.2 mph /  19.6 km/h 96 % 0.0 in /  0 mm
01:43 -2.7 °F /  -19.3 °C -3.3 °F /  -19.6 °C 1035.1 in /  35048.5 hPa NNE 11.6 mph /  18.7 km/h 12.2 mph /  19.6 km/h 96 % 0.0 in /  0 mm
01:48 -2.7 °F /  -19.3 °C -3.3 °F /  -19.6 °C 1035.1 in /  35048.5 hPa NE 9.0 mph /  14.5 km/h 11.9 mph /  19.2 km/h 96 % 0.0 in /  0 mm
01:53 -2.7 °F /  -19.3 °C -3.3 °F /  -19.6 °C 1035.1 in /  35048.5 hPa NE 10.1 mph /  16.3 km/h 11.9 mph /  19.2 km/h 96 % 0.0 in /  0 mm
01:58 -2.8 °F /  -19.3 °C -3.4 °F /  -19.7 °C 1035.1 in /  35048.5 hPa NE 9.0 mph /  14.5 km/h 13.0 mph /  20.9 km/h 96 % 0.0 in /  0 mm
02:03 0.0 °F /  -17.8 °C -3.4 °F /  -19.7 °C 1035.1 in /  35048.5 hPa NNE 9.7 mph /  15.6 km/h 10.1 mph /  16.3 km/h 0 % 0.0 in /  0 mm
02:08 -2.8 °F /  -19.3 °C -3.4 °F /  -19.7 °C 1035.1 in /  35048.5 hPa North 10.1 mph /  16.3 km/h 11.6 mph /  18.7 km/h 96 % 0.0 in /  0 mm
02:13 -2.8 °F /  -19.3 °C -3.4 °F /  -19.7 °C 1035.1 in /  35048.5 hPa NNE 6.9 mph /  11.1 km/h 11.6 mph /  18.7 km/h 96 % 0.0 in /  0 mm
02:18 -2.8 °F /  -19.3 °C -3.4 °F /  -19.7 °C 1035.1 in /  35048.5 hPa NNE 7.6 mph /  12.2 km/h 10.5 mph /  16.9 km/h 96 % 0.0 in /  0 mm
02:23 -2.8 °F /  -19.3 °C -3.4 °F /  -19.7 °C 1035.1 in /  35048.5 hPa NNE 7.9 mph /  12.7 km/h 10.1 mph /  16.3 km/h 96 % 0.0 in /  0 mm
02:28 -2.9 °F /  -19.4 °C -3.5 °F /  -19.7 °C 1035.1 in /  35048.5 hPa NE 6.9 mph /  11.1 km/h 10.5 mph /  16.9 km/h 96 % 0.0 in /  0 mm
02:33 -2.9 °F /  -19.4 °C -3.5 °F /  -19.7 °C 1035.1 in /  35048.5 hPa NNE 9.7 mph /  15.6 km/h 10.5 mph /  16.9 km/h 96 % 0.0 in /  0 mm
02:38 -2.9 °F /  -19.4 °C -3.5 °F /  -19.7 °C 1035.1 in /  35048.5 hPa NE 10.5 mph /  16.9 km/h 10.5 mph /  16.9 km/h 96 % 0.0 in /  0 mm
02:43 -2.9 °F /  -19.4 °C -3.5 °F /  -19.7 °C 1035.1 in /  35048.5 hPa NE 9.0 mph /  14.5 km/h 10.5 mph /  16.9 km/h 96 % 0.0 in /  0 mm
02:48 -2.9 °F /  -19.4 °C -3.5 °F /  -19.7 °C 1035.1 in /  35048.5 hPa NE 9.7 mph /  15.6 km/h 12.2 mph /  19.6 km/h 96 % 0.0 in /  0 mm
02:53 -2.9 °F /  -19.4 °C -3.3 °F /  -19.6 °C 1034.1 in /  35014.6 hPa NNE 9.3 mph /  15 km/h 12.2 mph /  19.6 km/h 97 % 0.0 in /  0 mm
02:58 -2.9 °F /  -19.4 °C -3.5 °F /  -19.7 °C 1034.1 in /  35014.6 hPa NE 8.7 mph /  14 km/h 11.9 mph /  19.2 km/h 96 % 0.0 in /  0 mm
03:03 -2.9 °F /  -19.4 °C -3.5 °F /  -19.7 °C 1034.1 in /  35014.6 hPa NNE 8.7 mph /  14 km/h 11.9 mph /  19.2 km/h 96 % 0.0 in /  0 mm
03:08 -2.9 °F /  -19.4 °C -3.5 °F /  -19.7 °C 1035.1 in /  35048.5 hPa NNE 7.6 mph /  12.2 km/h 9.3 mph /  15 km/h 96 % 0.0 in /  0 mm
03:13 -2.9 °F /  -19.4 °C -3.5 °F /  -19.7 °C 1035.1 in /  35048.5 hPa NE 7.9 mph /  12.7 km/h 10.1 mph /  16.3 km/h 96 % 0.0 in /  0 mm
03:18 -2.9 °F /  -19.4 °C -3.5 °F /  -19.7 °C 1035.1 in /  35048.5 hPa NE 8.7 mph /  14 km/h 10.1 mph /  16.3 km/h 96 % 0.0 in /  0 mm
03:23 -2.9 °F /  -19.4 °C -3.5 °F /  -19.7 °C 1035.1 in /  35048.5 hPa NE 9.3 mph /  15 km/h 10.1 mph /  16.3 km/h 96 % 0.0 in /  0 mm
03:28 -2.9 °F /  -19.4 °C -3.5 °F /  -19.7 °C 1035.1 in /  35048.5 hPa NNE 6.1 mph /  9.8 km/h 9.7 mph /  15.6 km/h 96 % 0.0 in /  0 mm
03:33 -2.9 °F /  -19.4 °C -3.5 °F /  -19.7 °C 1035.1 in /  35048.5 hPa NNE 5.8 mph /  9.3 km/h 11.6 mph /  18.7 km/h 96 % 0.0 in /  0 mm
03:38 -3.1 °F /  -19.5 °C -3.6 °F /  -19.8 °C 1034.1 in /  35014.6 hPa NNE 9.3 mph /  15 km/h 11.6 mph /  18.7 km/h 96 % 0.0 in /  0 mm
03:43 -3.1 °F /  -19.5 °C -3.6 °F /  -19.8 °C 1034.1 in /  35014.6 hPa NNE 5.0 mph /  8 km/h 10.5 mph /  16.9 km/h 96 % 0.0 in /  0 mm
03:48 -3.1 °F /  -19.5 °C -3.6 °F /  -19.8 °C 1034.1 in /  35014.6 hPa NE 9.7 mph /  15.6 km/h 10.5 mph /  16.9 km/h 96 % 0.0 in /  0 mm
03:53 -3.1 °F /  -19.5 °C -3.6 °F /  -19.8 °C 1035.1 in /  35048.5 hPa NNE 5.0 mph /  8 km/h 10.1 mph /  16.3 km/h 96 % 0.0 in /  0 mm
03:58 -3.1 °F /  -19.5 °C -3.6 °F /  -19.8 °C 1035.1 in /  35048.5 hPa NNE 9.0 mph /  14.5 km/h 12.6 mph /  20.3 km/h 96 % 0.0 in /  0 mm
04:03 -3.1 °F /  -19.5 °C -3.4 °F /  -19.7 °C 1035.1 in /  35048.5 hPa NE 10.1 mph /  16.3 km/h 12.6 mph /  20.3 km/h 97 % 0.0 in /  0 mm
04:08 -3.1 °F /  -19.5 °C -3.4 °F /  -19.7 °C 1035.1 in /  35048.5 hPa NNE 9.0 mph /  14.5 km/h 11.9 mph /  19.2 km/h 97 % 0.0 in /  0 mm
04:13 -3.1 °F /  -19.5 °C -3.4 °F /  -19.7 °C 1035.1 in /  35048.5 hPa NE 9.7 mph /  15.6 km/h 11.9 mph /  19.2 km/h 97 % 0.0 in /  0 mm
04:18 -3.1 °F /  -19.5 °C -3.4 °F /  -19.7 °C 1035.1 in /  35048.5 hPa NNE 10.1 mph /  16.3 km/h 12.2 mph /  19.6 km/h 97 % 0.0 in /  0 mm
04:23 -3.1 °F /  -19.5 °C -3.4 °F /  -19.7 °C 1034.1 in /  35014.6 hPa NE 6.9 mph /  11.1 km/h 13.0 mph /  20.9 km/h 97 % 0.0 in /  0 mm
04:28 -3.1 °F /  -19.5 °C -3.4 °F /  -19.7 °C 1034.1 in /  35014.6 hPa NE 7.9 mph /  12.7 km/h 13.0 mph /  20.9 km/h 97 % 0.0 in /  0 mm
04:33 -2.9 °F /  -19.4 °C -3.3 °F /  -19.6 °C 1034.1 in /  35014.6 hPa NE 9.0 mph /  14.5 km/h 11.9 mph /  19.2 km/h 97 % 0.0 in /  0 mm
04:38 -2.9 °F /  -19.4 °C -3.3 °F /  -19.6 °C 1035.1 in /  35048.5 hPa NE 11.6 mph /  18.7 km/h 12.6 mph /  20.3 km/h 97 % 0.0 in /  0 mm
04:43 -2.9 °F /  -19.4 °C -3.3 °F /  -19.6 °C 1035.1 in /  35048.5 hPa NNE 6.4 mph /  10.3 km/h 12.6 mph /  20.3 km/h 97 % 0.0 in /  0 mm
04:48 -2.9 °F /  -19.4 °C -3.3 °F /  -19.6 °C 1035.1 in /  35048.5 hPa NE 10.5 mph /  16.9 km/h 12.6 mph /  20.3 km/h 97 % 0.0 in /  0 mm
04:53 -2.9 °F /  -19.4 °C -3.3 °F /  -19.6 °C 1035.1 in /  35048.5 hPa NE 9.0 mph /  14.5 km/h 14.0 mph /  22.5 km/h 97 % 0.0 in /  0 mm
04:58 -2.9 °F /  -19.4 °C -3.3 °F /  -19.6 °C 1035.1 in /  35048.5 hPa NNE 7.9 mph /  12.7 km/h 14.0 mph /  22.5 km/h 97 % 0.0 in /  0 mm
05:03 -2.9 °F /  -19.4 °C -3.3 °F /  -19.6 °C 1035.1 in /  35048.5 hPa NNE 9.7 mph /  15.6 km/h 12.6 mph /  20.3 km/h 97 % 0.0 in /  0 mm
05:08 -2.9 °F /  -19.4 °C -3.3 °F /  -19.6 °C 1035.1 in /  35048.5 hPa NNE 9.3 mph /  15 km/h 12.6 mph /  20.3 km/h 97 % 0.0 in /  0 mm
05:13 -2.9 °F /  -19.4 °C -3.3 °F /  -19.6 °C 1035.1 in /  35048.5 hPa NE 9.3 mph /  15 km/h 14.0 mph /  22.5 km/h 97 % 0.0 in /  0 mm
05:18 -2.9 °F /  -19.4 °C -3.3 °F /  -19.6 °C 1035.1 in /  35048.5 hPa NNE 10.1 mph /  16.3 km/h 14.0 mph /  22.5 km/h 97 % 0.0 in /  0 mm
05:23 -2.9 °F /  -19.4 °C -3.3 °F /  -19.6 °C 1035.1 in /  35048.5 hPa NNE 10.1 mph /  16.3 km/h 11.6 mph /  18.7 km/h 97 % 0.0 in /  0 mm
05:28 -2.9 °F /  -19.4 °C -3.3 °F /  -19.6 °C 1035.1 in /  35048.5 hPa NNE 8.7 mph /  14 km/h 13.0 mph /  20.9 km/h 97 % 0.0 in /  0 mm
05:33 -2.8 °F /  -19.3 °C -3.3 °F /  -19.6 °C 1035.1 in /  35048.5 hPa NE 13.7 mph /  22 km/h 13.7 mph /  22 km/h 97 % 0.0 in /  0 mm
05:38 -2.9 °F /  -19.4 °C -3.3 °F /  -19.6 °C 1035.1 in /  35048.5 hPa NE 8.7 mph /  14 km/h 13.7 mph /  22 km/h 97 % 0.0 in /  0 mm
05:43 -2.8 °F /  -19.3 °C -3.3 °F /  -19.6 °C 1035.1 in /  35048.5 hPa NE 9.3 mph /  15 km/h 11.9 mph /  19.2 km/h 97 % 0.0 in /  0 mm
05:49 -2.8 °F /  -19.3 °C -3.3 °F /  -19.6 °C 1035.1 in /  35048.5 hPa ENE 9.0 mph /  14.5 km/h 14.0 mph /  22.5 km/h 97 % 0.0 in /  0 mm
05:54 -2.7 °F /  -19.3 °C -3.2 °F /  -19.6 °C 1035.1 in /  35048.5 hPa NE 7.9 mph /  12.7 km/h 14.0 mph /  22.5 km/h 97 % 0.0 in /  0 mm
05:59 -2.7 °F /  -19.3 °C -3.2 °F /  -19.6 °C 1035.1 in /  35048.5 hPa NE 9.0 mph /  14.5 km/h 13.0 mph /  20.9 km/h 97 % 0.0 in /  0 mm
06:04 -2.7 °F /  -19.3 °C -3.2 °F /  -19.6 °C 1035.1 in /  35048.5 hPa NNE 11.6 mph /  18.7 km/h 13.0 mph /  20.9 km/h 97 % 0.0 in /  0 mm
06:08 -2.7 °F /  -19.3 °C -3.2 °F /  -19.6 °C 1034.1 in /  35014.6 hPa NE 13.0 mph /  20.9 km/h 14.0 mph /  22.5 km/h 97 % 0.0 in /  0 mm
06:14 -2.8 °F /  -19.3 °C -3.3 °F /  -19.6 °C 1034.1 in /  35014.6 hPa NNE 9.0 mph /  14.5 km/h 14.0 mph /  22.5 km/h 97 % 0.0 in /  0 mm
06:19 -2.7 °F /  -19.3 °C -3.2 °F /  -19.6 °C 1034.1 in /  35014.6 hPa NE 12.2 mph /  19.6 km/h 13.7 mph /  22 km/h 97 % 0.0 in /  0 mm
06:24 -2.7 °F /  -19.3 °C -3.1 °F /  -19.5 °C 1034.1 in /  35014.6 hPa NNE 12.6 mph /  20.3 km/h 17.7 mph /  28.5 km/h 97 % 0.0 in /  0 mm
06:28 -2.7 °F /  -19.3 °C -3.1 °F /  -19.5 °C 1034.1 in /  35014.6 hPa NE 13.7 mph /  22 km/h 17.7 mph /  28.5 km/h 97 % 0.0 in /  0 mm
06:34 -2.7 °F /  -19.3 °C -3.1 °F /  -19.5 °C 1034.1 in /  35014.6 hPa NNE 12.2 mph /  19.6 km/h 15.8 mph /  25.4 km/h 97 % 0.0 in /  0 mm
06:38 -2.7 °F /  -19.3 °C -3.2 °F /  -19.6 °C 1034.1 in /  35014.6 hPa NNE 10.5 mph /  16.9 km/h 15.8 mph /  25.4 km/h 97 % 0.0 in /  0 mm
06:44 -2.7 °F /  -19.3 °C -3.2 °F /  -19.6 °C 1034.1 in /  35014.6 hPa NE 13.7 mph /  22 km/h 14.3 mph /  23 km/h 97 % 0.0 in /  0 mm
06:48 -2.7 °F /  -19.3 °C -3.2 °F /  -19.6 °C 1034.1 in /  35014.6 hPa NE 9.0 mph /  14.5 km/h 14.0 mph /  22.5 km/h 97 % 0.0 in /  0 mm
06:53 -2.7 °F /  -19.3 °C -3.2 °F /  -19.6 °C 1034.1 in /  35014.6 hPa NE 10.8 mph /  17.4 km/h 14.0 mph /  22.5 km/h 97 % 0.0 in /  0 mm
06:58 -2.7 °F /  -19.3 °C -3.2 °F /  -19.6 °C 1034.1 in /  35014.6 hPa NE 10.5 mph /  16.9 km/h 14.0 mph /  22.5 km/h 97 % 0.0 in /  0 mm
07:03 -2.8 °F /  -19.3 °C -3.4 °F /  -19.7 °C 1034.1 in /  35014.6 hPa NE 9.0 mph /  14.5 km/h 13.0 mph /  20.9 km/h 96 % 0.0 in /  0 mm
07:08 -2.8 °F /  -19.3 °C -3.4 °F /  -19.7 °C 1035.1 in /  35048.5 hPa NE 9.3 mph /  15 km/h 11.6 mph /  18.7 km/h 96 % 0.0 in /  0 mm
07:13 -2.8 °F /  -19.3 °C -3.4 °F /  -19.7 °C 1035.1 in /  35048.5 hPa NE 7.6 mph /  12.2 km/h 11.6 mph /  18.7 km/h 96 % 0.0 in /  0 mm
07:18 -2.7 °F /  -19.3 °C -3.2 °F /  -19.6 °C 1035.1 in /  35048.5 hPa NNE 9.3 mph /  15 km/h 11.9 mph /  19.2 km/h 97 % 0.0 in /  0 mm
07:23 -2.8 °F /  -19.3 °C -3.4 °F /  -19.7 °C 1034.1 in /  35014.6 hPa NE 9.0 mph /  14.5 km/h 13.0 mph /  20.9 km/h 96 % 0.0 in /  0 mm
07:28 -2.9 °F /  -19.4 °C -3.3 °F /  -19.6 °C 1034.1 in /  35014.6 hPa NE 7.9 mph /  12.7 km/h 13.0 mph /  20.9 km/h 97 % 0.0 in /  0 mm
07:33 -3.1 °F /  -19.5 °C -3.6 °F /  -19.8 °C 1034.1 in /  35014.6 hPa NNE 6.1 mph /  9.8 km/h 9.3 mph /  15 km/h 96 % 0.0 in /  0 mm
07:38 -3.1 °F /  -19.5 °C -3.7 °F /  -19.8 °C 1035.1 in /  35048.5 hPa NNE 4.3 mph /  6.9 km/h 8.7 mph /  14 km/h 96 % 0.0 in /  0 mm
07:43 -3.1 °F /  -19.5 °C -3.7 °F /  -19.8 °C 1035.1 in /  35048.5 hPa NNE 5.5 mph /  8.9 km/h 9.0 mph /  14.5 km/h 96 % 0.0 in /  0 mm
07:48 -3.2 °F /  -19.6 °C -3.8 °F /  -19.9 °C 1035.1 in /  35048.5 hPa NE 9.3 mph /  15 km/h 10.5 mph /  16.9 km/h 96 % 0.0 in /  0 mm
07:53 -3.2 °F /  -19.6 °C -3.8 °F /  -19.9 °C 1035.1 in /  35048.5 hPa NE 10.1 mph /  16.3 km/h 12.2 mph /  19.6 km/h 96 % 0.0 in /  0 mm
07:58 -3.2 °F /  -19.6 °C -3.7 °F /  -19.8 °C 1035.1 in /  35048.5 hPa NE 9.3 mph /  15 km/h 13.7 mph /  22 km/h 97 % 0.0 in /  0 mm
08:03 -3.2 °F /  -19.6 °C -3.7 °F /  -19.8 °C 1035.1 in /  35048.5 hPa NE 8.7 mph /  14 km/h 13.7 mph /  22 km/h 97 % 0.0 in /  0 mm
08:08 -3.1 °F /  -19.5 °C -3.6 °F /  -19.8 °C 1035.1 in /  35048.5 hPa NE 9.0 mph /  14.5 km/h 13.0 mph /  20.9 km/h 97 % 0.0 in /  0 mm
08:13 -3.2 °F /  -19.6 °C -3.7 °F /  -19.8 °C 1035.1 in /  35048.5 hPa ENE 9.3 mph /  15 km/h 12.6 mph /  20.3 km/h 97 % 0.0 in /  0 mm
08:18 -3.2 °F /  -19.6 °C -3.7 °F /  -19.8 °C 1035.1 in /  35048.5 hPa NE 9.0 mph /  14.5 km/h 14.0 mph /  22.5 km/h 97 % 0.0 in /  0 mm
08:23 -3.2 °F /  -19.6 °C -3.7 °F /  -19.8 °C 1035.1 in /  35048.5 hPa NNE 9.0 mph /  14.5 km/h 14.0 mph /  22.5 km/h 97 % 0.0 in /  0 mm
08:28 -3.2 °F /  -19.6 °C -3.7 °F /  -19.8 °C 1035.1 in /  35048.5 hPa NNE 10.1 mph /  16.3 km/h 13.0 mph /  20.9 km/h 97 % 0.0 in /  0 mm
08:33 -3.1 °F /  -19.5 °C -3.6 °F /  -19.8 °C 1035.1 in /  35048.5 hPa NE 11.9 mph /  19.2 km/h 12.6 mph /  20.3 km/h 97 % 0.0 in /  0 mm
08:38 -3.1 °F /  -19.5 °C -3.6 °F /  -19.8 °C 1035.1 in /  35048.5 hPa NNE 8.7 mph /  14 km/h 12.6 mph /  20.3 km/h 97 % 0.0 in /  0 mm
08:43 -3.1 °F /  -19.5 °C -3.6 °F /  -19.8 °C 1035.1 in /  35048.5 hPa NE 12.2 mph /  19.6 km/h 13.0 mph /  20.9 km/h 97 % 0.0 in /  0 mm
08:48 -3.1 °F /  -19.5 °C -3.4 °F /  -19.7 °C 1035.1 in /  35048.5 hPa NNE 13.0 mph /  20.9 km/h 14.8 mph /  23.8 km/h 97 % 0.0 in /  0 mm
08:53 -3.1 °F /  -19.5 °C -3.4 °F /  -19.7 °C 1036.1 in /  35082.3 hPa NE 10.5 mph /  16.9 km/h 16.6 mph /  26.7 km/h 97 % 0.0 in /  0 mm
08:58 -3.1 °F /  -19.5 °C -3.4 °F /  -19.7 °C 1036.1 in /  35082.3 hPa NE 9.7 mph /  15.6 km/h 16.6 mph /  26.7 km/h 97 % 0.0 in /  0 mm
09:03 -2.9 °F /  -19.4 °C -3.3 °F /  -19.6 °C 1036.1 in /  35082.3 hPa NE 10.1 mph /  16.3 km/h 13.7 mph /  22 km/h 97 % 0.0 in /  0 mm
09:08 -2.9 °F /  -19.4 °C -3.3 °F /  -19.6 °C 1035.1 in /  35048.5 hPa NNE 11.9 mph /  19.2 km/h 13.7 mph /  22 km/h 97 % 0.0 in /  0 mm
09:13 -2.8 °F /  -19.3 °C -3.4 °F /  -19.7 °C 1035.1 in /  35048.5 hPa NNE 10.8 mph /  17.4 km/h 13.7 mph /  22 km/h 96 % 0.0 in /  0 mm
09:18 -2.7 °F /  -19.3 °C -3.3 °F /  -19.6 °C 1035.1 in /  35048.5 hPa NE 10.5 mph /  16.9 km/h 14.0 mph /  22.5 km/h 96 % 0.0 in /  0 mm
09:23 -2.7 °F /  -19.3 °C -3.3 °F /  -19.6 °C 1035.1 in /  35048.5 hPa NNE 11.6 mph /  18.7 km/h 14.0 mph /  22.5 km/h 96 % 0.0 in /  0 mm
09:28 -2.7 °F /  -19.3 °C -3.2 °F /  -19.6 °C 1035.1 in /  35048.5 hPa NE 10.1 mph /  16.3 km/h 13.0 mph /  20.9 km/h 96 % 0.0 in /  0 mm
09:33 -2.4 °F /  -19.1 °C -3.0 °F /  -19.4 °C 1035.1 in /  35048.5 hPa ENE 9.7 mph /  15.6 km/h 14.0 mph /  22.5 km/h 96 % 0.0 in /  0 mm
09:38 -2.3 °F /  -19.1 °C -2.9 °F /  -19.4 °C 1035.1 in /  35048.5 hPa ENE 11.9 mph /  19.2 km/h 14.0 mph /  22.5 km/h 96 % 0.0 in /  0 mm
09:43 -2.3 °F /  -19.1 °C -2.8 °F /  -19.3 °C 1035.1 in /  35048.5 hPa ENE 5.8 mph /  9.3 km/h 11.9 mph /  19.2 km/h 96 % 0.0 in /  0 mm
09:48 -2.2 °F /  -19 °C -2.7 °F /  -19.3 °C 1035.1 in /  35048.5 hPa ENE 9.0 mph /  14.5 km/h 11.9 mph /  19.2 km/h 96 % 0.0 in /  0 mm
09:53 -1.9 °F /  -18.8 °C -2.5 °F /  -19.2 °C 1035.1 in /  35048.5 hPa NE 9.3 mph /  15 km/h 10.8 mph /  17.4 km/h 96 % 0.0 in /  0 mm
09:58 -1.9 °F /  -18.8 °C -2.4 °F /  -19.1 °C 1035.1 in /  35048.5 hPa ENE 10.5 mph /  16.9 km/h 12.2 mph /  19.6 km/h 96 % 0.0 in /  0 mm
10:03 -1.7 °F /  -18.7 °C -2.2 °F /  -19 °C 1035.1 in /  35048.5 hPa ENE 7.9 mph /  12.7 km/h 12.2 mph /  19.6 km/h 96 % 0.0 in /  0 mm
10:08 -1.4 °F /  -18.6 °C -2.1 °F /  -18.9 °C 1035.1 in /  35048.5 hPa NE 5.0 mph /  8 km/h 11.1 mph /  17.9 km/h 95 % 0.0 in /  0 mm
10:13 -1.3 °F /  -18.5 °C -1.9 °F /  -18.8 °C 1035.1 in /  35048.5 hPa ENE 9.0 mph /  14.5 km/h 11.6 mph /  18.7 km/h 95 % 0.0 in /  0 mm
10:18 -1.1 °F /  -18.4 °C -1.8 °F /  -18.8 °C 1035.1 in /  35048.5 hPa NE 13.7 mph /  22 km/h 13.7 mph /  22 km/h 95 % 0.0 in /  0 mm
10:23 -1.0 °F /  -18.3 °C -1.8 °F /  -18.8 °C 1035.1 in /  35048.5 hPa NE 9.7 mph /  15.6 km/h 13.7 mph /  22 km/h 94 % 0.0 in /  0 mm
10:28 -0.9 °F /  -18.3 °C -1.9 °F /  -18.8 °C 1035.1 in /  35048.5 hPa ENE 8.7 mph /  14 km/h 13.7 mph /  22 km/h 93 % 0.0 in /  0 mm
10:33 -0.7 °F /  -18.2 °C -1.8 °F /  -18.8 °C 1035.1 in /  35048.5 hPa ENE 12.6 mph /  20.3 km/h 13.7 mph /  22 km/h 92 % 0.0 in /  0 mm
10:38 -0.6 °F /  -18.1 °C -1.9 °F /  -18.8 °C 1035.1 in /  35048.5 hPa NE 14.0 mph /  22.5 km/h 14.0 mph /  22.5 km/h 91 % 0.0 in /  0 mm
10:43 -0.4 °F /  -18 °C -1.8 °F /  -18.8 °C 1035.1 in /  35048.5 hPa NE 9.7 mph /  15.6 km/h 14.0 mph /  22.5 km/h 90 % 0.0 in /  0 mm
10:48 -0.4 °F /  -18 °C -2.0 °F /  -18.9 °C 1035.1 in /  35048.5 hPa NE 6.4 mph /  10.3 km/h 13.0 mph /  20.9 km/h 89 % 0.0 in /  0 mm
10:53 -0.1 °F /  -17.8 °C -1.7 °F /  -18.7 °C 1035.1 in /  35048.5 hPa ENE 9.7 mph /  15.6 km/h 13.0 mph /  20.9 km/h 89 % 0.0 in /  0 mm
10:58 0.0 °F /  -17.8 °C -1.8 °F /  -18.8 °C 1035.1 in /  35048.5 hPa ENE 10.5 mph /  16.9 km/h 11.9 mph /  19.2 km/h 88 % 0.0 in /  0 mm
11:03 0.1 °F /  -17.7 °C -1.8 °F /  -18.8 °C 1035.1 in /  35048.5 hPa ENE 9.3 mph /  15 km/h 12.6 mph /  20.3 km/h 87 % 0.0 in /  0 mm
11:08 0.2 °F /  -17.7 °C -1.7 °F /  -18.7 °C 1035.1 in /  35048.5 hPa ENE 14.0 mph /  22.5 km/h 14.3 mph /  23 km/h 87 % 0.0 in /  0 mm
11:13 0.3 °F /  -17.6 °C -1.9 °F /  -18.8 °C 1035.1 in /  35048.5 hPa ENE 10.5 mph /  16.9 km/h 14.3 mph /  23 km/h 85 % 0.0 in /  0 mm
11:18 0.5 °F /  -17.5 °C -1.9 °F /  -18.8 °C 1035.1 in /  35048.5 hPa NE 10.1 mph /  16.3 km/h 13.0 mph /  20.9 km/h 84 % 0.0 in /  0 mm
11:23 0.6 °F /  -17.4 °C -1.8 °F /  -18.8 °C 1035.1 in /  35048.5 hPa NE 10.1 mph /  16.3 km/h 13.0 mph /  20.9 km/h 84 % 0.0 in /  0 mm
11:28 0.7 °F /  -17.4 °C -1.9 °F /  -18.8 °C 1035.1 in /  35048.5 hPa NE 10.5 mph /  16.9 km/h 14.3 mph /  23 km/h 83 % 0.0 in /  0 mm
11:33 0.7 °F /  -17.4 °C -2.1 °F /  -18.9 °C 1035.1 in /  35048.5 hPa ENE 8.7 mph /  14 km/h 14.3 mph /  23 km/h 82 % 0.0 in /  0 mm
11:38 0.9 °F /  -17.3 °C -2.2 °F /  -19 °C 1035.1 in /  35048.5 hPa NE 9.7 mph /  15.6 km/h 13.0 mph /  20.9 km/h 80 % 0.0 in /  0 mm
11:43 0.9 °F /  -17.3 °C -2.3 °F /  -19.1 °C 1035.1 in /  35048.5 hPa ENE 10.5 mph /  16.9 km/h 13.0 mph /  20.9 km/h 79 % 0.0 in /  0 mm
11:48 1.1 °F /  -17.2 °C -2.2 °F /  -19 °C 1035.1 in /  35048.5 hPa ENE 10.1 mph /  16.3 km/h 13.0 mph /  20.9 km/h 79 % 0.0 in /  0 mm
11:53 1.3 °F /  -17.1 °C -2.2 °F /  -19 °C 1035.1 in /  35048.5 hPa ENE 9.3 mph /  15 km/h 13.0 mph /  20.9 km/h 78 % 0.0 in /  0 mm
11:58 1.4 °F /  -17 °C -1.9 °F /  -18.8 °C 1035.1 in /  35048.5 hPa East 11.9 mph /  19.2 km/h 11.9 mph /  19.2 km/h 78 % 0.0 in /  0 mm
12:03 1.6 °F /  -16.9 °C -2.1 °F /  -18.9 °C 1035.1 in /  35048.5 hPa ESE 6.4 mph /  10.3 km/h 11.9 mph /  19.2 km/h 77 % 0.0 in /  0 mm
12:08 1.6 °F /  -16.9 °C -2.1 °F /  -18.9 °C 1035.1 in /  35048.5 hPa East 11.9 mph /  19.2 km/h 13.7 mph /  22 km/h 77 % 0.0 in /  0 mm
12:13 1.8 °F /  -16.8 °C -2.0 °F /  -18.9 °C 1035.1 in /  35048.5 hPa ENE 6.4 mph /  10.3 km/h 13.7 mph /  22 km/h 76 % 0.0 in /  0 mm
12:18 1.9 °F /  -16.7 °C -1.9 °F /  -18.8 °C 1035.1 in /  35048.5 hPa ENE 10.1 mph /  16.3 km/h 12.2 mph /  19.6 km/h 76 % 0.0 in /  0 mm
12:23 1.9 °F /  -16.7 °C -2.4 °F /  -19.1 °C 1035.1 in /  35048.5 hPa ENE 7.9 mph /  12.7 km/h 12.6 mph /  20.3 km/h 73 % 0.0 in /  0 mm
12:28 2.2 °F /  -16.6 °C -2.2 °F /  -19 °C 1035.1 in /  35048.5 hPa East 8.7 mph /  14 km/h 12.6 mph /  20.3 km/h 73 % 0.0 in /  0 mm
12:33 2.3 °F /  -16.5 °C -2.2 °F /  -19 °C 1035.1 in /  35048.5 hPa East 9.0 mph /  14.5 km/h 9.7 mph /  15.6 km/h 72 % 0.0 in /  0 mm
12:38 2.3 °F /  -16.5 °C -2.0 °F /  -18.9 °C 1035.1 in /  35048.5 hPa ENE 10.1 mph /  16.3 km/h 11.6 mph /  18.7 km/h 73 % 0.0 in /  0 mm
12:43 2.4 °F /  -16.4 °C -2.4 °F /  -19.1 °C 1035.1 in /  35048.5 hPa East 7.9 mph /  12.7 km/h 11.6 mph /  18.7 km/h 70 % 0.0 in /  0 mm
12:48 2.7 °F /  -16.3 °C -1.9 °F /  -18.8 °C 1035.1 in /  35048.5 hPa NE 10.1 mph /  16.3 km/h 11.6 mph /  18.7 km/h 72 % 0.0 in /  0 mm
12:53 2.7 °F /  -16.3 °C -2.0 °F /  -18.9 °C 1035.1 in /  35048.5 hPa East 7.9 mph /  12.7 km/h 11.6 mph /  18.7 km/h 71 % 0.0 in /  0 mm
12:58 2.8 °F /  -16.2 °C -2.1 °F /  -18.9 °C 1035.1 in /  35048.5 hPa ENE 10.1 mph /  16.3 km/h 10.5 mph /  16.9 km/h 70 % 0.0 in /  0 mm
13:03 3.1 °F /  -16.1 °C -1.9 °F /  -18.8 °C 1035.1 in /  35048.5 hPa ENE 10.5 mph /  16.9 km/h 10.5 mph /  16.9 km/h 70 % 0.0 in /  0 mm
13:08 3.1 °F /  -16.1 °C -2.3 °F /  -19.1 °C 1035.1 in /  35048.5 hPa East 7.6 mph /  12.2 km/h 11.9 mph /  19.2 km/h 68 % 0.0 in /  0 mm
13:13 3.1 °F /  -16.1 °C -2.7 °F /  -19.3 °C 1035.1 in /  35048.5 hPa NE 9.3 mph /  15 km/h 11.9 mph /  19.2 km/h 66 % 0.0 in /  0 mm
13:18 3.1 °F /  -16.1 °C -2.7 °F /  -19.3 °C 1035.1 in /  35048.5 hPa NNE 9.7 mph /  15.6 km/h 10.8 mph /  17.4 km/h 66 % 0.0 in /  0 mm
13:23 3.2 °F /  -16 °C -2.1 °F /  -18.9 °C 1034.1 in /  35014.6 hPa NE 6.4 mph /  10.3 km/h 11.6 mph /  18.7 km/h 68 % 0.0 in /  0 mm
13:28 3.1 °F /  -16.1 °C -2.6 °F /  -19.2 °C 1034.1 in /  35014.6 hPa ENE 11.9 mph /  19.2 km/h 12.6 mph /  20.3 km/h 66 % 0.0 in /  0 mm
13:33 3.2 °F /  -16 °C -2.7 °F /  -19.3 °C 1034.1 in /  35014.6 hPa NE 8.7 mph /  14 km/h 12.6 mph /  20.3 km/h 65 % 0.0 in /  0 mm
13:38 3.2 °F /  -16 °C -3.3 °F /  -19.6 °C 1034.1 in /  35014.6 hPa NE 9.7 mph /  15.6 km/h 13.7 mph /  22 km/h 62 % 0.0 in /  0 mm
13:43 3.2 °F /  -16 °C -3.2 °F /  -19.6 °C 1034.1 in /  35014.6 hPa NE 7.9 mph /  12.7 km/h 13.7 mph /  22 km/h 63 % 0.0 in /  0 mm
13:48 3.4 °F /  -15.9 °C -2.7 °F /  -19.3 °C 1034.1 in /  35014.6 hPa ENE 9.7 mph /  15.6 km/h 11.9 mph /  19.2 km/h 64 % 0.0 in /  0 mm
13:53 3.6 °F /  -15.8 °C -2.9 °F /  -19.4 °C 1034.1 in /  35014.6 hPa NE 13.0 mph /  20.9 km/h 13.0 mph /  20.9 km/h 63 % 0.0 in /  0 mm
13:58 3.3 °F /  -15.9 °C -3.3 °F /  -19.6 °C 1034.1 in /  35014.6 hPa NNE 9.7 mph /  15.6 km/h 14.0 mph /  22.5 km/h 62 % 0.0 in /  0 mm
14:04 3.4 °F /  -15.9 °C -3.2 °F /  -19.6 °C 1034.1 in /  35014.6 hPa NE 9.7 mph /  15.6 km/h 14.0 mph /  22.5 km/h 62 % 0.0 in /  0 mm
14:09 3.6 °F /  -15.8 °C -3.1 °F /  -19.5 °C 1034.1 in /  35014.6 hPa NE 5.5 mph /  8.9 km/h 14.0 mph /  22.5 km/h 62 % 0.0 in /  0 mm
14:14 3.6 °F /  -15.8 °C -3.3 °F /  -19.6 °C 1034.1 in /  35014.6 hPa NE 11.1 mph /  17.9 km/h 14.0 mph /  22.5 km/h 61 % 0.0 in /  0 mm
14:18 3.6 °F /  -15.8 °C -3.5 °F /  -19.7 °C 1034.1 in /  35014.6 hPa ENE 10.5 mph /  16.9 km/h 14.0 mph /  22.5 km/h 60 % 0.0 in /  0 mm
14:24 3.6 °F /  -15.8 °C -3.4 °F /  -19.7 °C 1034.1 in /  35014.6 hPa NE 10.5 mph /  16.9 km/h 14.0 mph /  22.5 km/h 60 % 0.0 in /  0 mm
14:28 3.6 °F /  -15.8 °C -3.4 °F /  -19.7 °C 1034.1 in /  35014.6 hPa East 9.0 mph /  14.5 km/h 15.1 mph /  24.3 km/h 60 % 0.0 in /  0 mm
14:33 3.7 °F /  -15.7 °C -3.3 °F /  -19.6 °C 1034.1 in /  35014.6 hPa ENE 6.4 mph /  10.3 km/h 15.1 mph /  24.3 km/h 60 % 0.0 in /  0 mm
14:39 3.7 °F /  -15.7 °C -3.3 °F /  -19.6 °C 1034.1 in /  35014.6 hPa NE 9.7 mph /  15.6 km/h 12.6 mph /  20.3 km/h 60 % 0.0 in /  0 mm
14:43 3.7 °F /  -15.7 °C -3.6 °F /  -19.8 °C 1034.1 in /  35014.6 hPa NE 9.3 mph /  15 km/h 11.6 mph /  18.7 km/h 59 % 0.0 in /  0 mm
14:48 3.8 °F /  -15.7 °C -3.2 °F /  -19.6 °C 1034.1 in /  35014.6 hPa NE 6.4 mph /  10.3 km/h 11.6 mph /  18.7 km/h 60 % 0.0 in /  0 mm
14:54 3.8 °F /  -15.7 °C -3.4 °F /  -19.7 °C 1034.1 in /  35014.6 hPa ENE 7.9 mph /  12.7 km/h 11.9 mph /  19.2 km/h 59 % 0.0 in /  0 mm
14:59 3.9 °F /  -15.6 °C -3.4 °F /  -19.7 °C 1034.1 in /  35014.6 hPa NNE 6.1 mph /  9.8 km/h 11.9 mph /  19.2 km/h 59 % 0.0 in /  0 mm
15:04 3.9 °F /  -15.6 °C -3.4 °F /  -19.7 °C 1034.1 in /  35014.6 hPa NE 10.5 mph /  16.9 km/h 10.8 mph /  17.4 km/h 59 % 0.0 in /  0 mm
15:09 3.9 °F /  -15.6 °C -3.4 °F /  -19.7 °C 1034.1 in /  35014.6 hPa NE 7.6 mph /  12.2 km/h 12.2 mph /  19.6 km/h 59 % 0.0 in /  0 mm
15:14 3.9 °F /  -15.6 °C -3.4 °F /  -19.7 °C 1034.1 in /  35014.6 hPa NE 7.9 mph /  12.7 km/h 12.2 mph /  19.6 km/h 59 % 0.0 in /  0 mm
15:19 3.9 °F /  -15.6 °C -3.4 °F /  -19.7 °C 1034.1 in /  35014.6 hPa East 5.5 mph /  8.9 km/h 10.5 mph /  16.9 km/h 59 % 0.0 in /  0 mm
15:24 4.0 °F /  -15.6 °C -3.3 °F /  -19.6 °C 1034.1 in /  35014.6 hPa East 7.9 mph /  12.7 km/h 10.5 mph /  16.9 km/h 59 % 0.0 in /  0 mm
15:29 4.0 °F /  -15.6 °C -3.5 °F /  -19.7 °C 1034.1 in /  35014.6 hPa ENE 7.9 mph /  12.7 km/h 10.1 mph /  16.3 km/h 58 % 0.0 in /  0 mm
15:34 4.0 °F /  -15.6 °C -3.3 °F /  -19.6 °C 1034.1 in /  35014.6 hPa ENE 8.7 mph /  14 km/h 10.1 mph /  16.3 km/h 59 % 0.0 in /  0 mm
15:39 3.9 °F /  -15.6 °C -3.4 °F /  -19.7 °C 1034.1 in /  35014.6 hPa East 6.1 mph /  9.8 km/h 9.7 mph /  15.6 km/h 59 % 0.0 in /  0 mm
15:44 3.9 °F /  -15.6 °C -3.4 °F /  -19.7 °C 1034.1 in /  35014.6 hPa East 9.3 mph /  15 km/h 9.7 mph /  15.6 km/h 59 % 0.0 in /  0 mm
15:49 3.8 °F /  -15.7 °C -3.7 °F /  -19.8 °C 1034.1 in /  35014.6 hPa ENE 12.6 mph /  20.3 km/h 12.6 mph /  20.3 km/h 58 % 0.0 in /  0 mm
15:54 3.7 °F /  -15.7 °C -3.8 °F /  -19.9 °C 1034.1 in /  35014.6 hPa NE 9.0 mph /  14.5 km/h 12.6 mph /  20.3 km/h 58 % 0.0 in /  0 mm
15:59 3.7 °F /  -15.7 °C -3.8 °F /  -19.9 °C 1034.1 in /  35014.6 hPa East 6.4 mph /  10.3 km/h 12.6 mph /  20.3 km/h 58 % 0.0 in /  0 mm
16:04 3.7 °F /  -15.7 °C -3.8 °F /  -19.9 °C 1034.1 in /  35014.6 hPa NNE 6.4 mph /  10.3 km/h 10.1 mph /  16.3 km/h 58 % 0.0 in /  0 mm
16:09 3.7 °F /  -15.7 °C -3.6 °F /  -19.8 °C 1034.1 in /  35014.6 hPa East 5.0 mph /  8 km/h 9.0 mph /  14.5 km/h 59 % 0.0 in /  0 mm
16:10 3.7 °F /  -15.7 °C -3.6 °F /  -19.8 °C 1034.1 in /  35014.6 hPa NE 5.0 mph /  8 km/h 9.0 mph /  14.5 km/h 59 % 0.0 in /  0 mm
16:15 3.6 °F /  -15.8 °C -3.9 °F /  -19.9 °C 1034.1 in /  35014.6 hPa ENE 6.9 mph /  11.1 km/h 9.3 mph /  15 km/h 58 % 0.0 in /  0 mm
16:20 3.6 °F /  -15.8 °C -3.7 °F /  -19.8 °C 1034.1 in /  35014.6 hPa NE 5.0 mph /  8 km/h 9.3 mph /  15 km/h 59 % 0.0 in /  0 mm
16:25 3.2 °F /  -16 °C -4.0 °F /  -20 °C 1034.1 in /  35014.6 hPa ESE 6.4 mph /  10.3 km/h 9.0 mph /  14.5 km/h 59 % 0.0 in /  0 mm
16:30 2.9 °F /  -16.2 °C -4.3 °F /  -20.2 °C 1034.1 in /  35014.6 hPa East 5.0 mph /  8 km/h 9.0 mph /  14.5 km/h 59 % 0.0 in /  0 mm
16:35 2.7 °F /  -16.3 °C -4.3 °F /  -20.2 °C 1034.1 in /  35014.6 hPa East 5.5 mph /  8.9 km/h 9.0 mph /  14.5 km/h 60 % 0.0 in /  0 mm
16:40 2.6 °F /  -16.3 °C -4.2 °F /  -20.1 °C 1034.1 in /  35014.6 hPa NE 7.9 mph /  12.7 km/h 9.7 mph /  15.6 km/h 61 % 0.0 in /  0 mm
16:45 2.3 °F /  -16.5 °C -4.4 °F /  -20.2 °C 1034.1 in /  35014.6 hPa NE 6.1 mph /  9.8 km/h 9.7 mph /  15.6 km/h 61 % 0.0 in /  0 mm
16:50 2.2 °F /  -16.6 °C -4.4 °F /  -20.2 °C 1034.1 in /  35014.6 hPa East 7.9 mph /  12.7 km/h 9.3 mph /  15 km/h 62 % 0.0 in /  0 mm
16:55 1.9 °F /  -16.7 °C -4.3 °F /  -20.2 °C 1034.1 in /  35014.6 hPa ENE 6.1 mph /  9.8 km/h 9.3 mph /  15 km/h 63 % 0.0 in /  0 mm
17:00 1.9 °F /  -16.7 °C -4.4 °F /  -20.2 °C 1034.1 in /  35014.6 hPa ENE 6.4 mph /  10.3 km/h 11.6 mph /  18.7 km/h 63 % 0.0 in /  0 mm
17:05 1.8 °F /  -16.8 °C -4.3 °F /  -20.2 °C 1034.1 in /  35014.6 hPa NE 6.1 mph /  9.8 km/h 11.6 mph /  18.7 km/h 64 % 0.0 in /  0 mm
17:10 1.6 °F /  -16.9 °C -4.5 °F /  -20.3 °C 1034.1 in /  35014.6 hPa ENE 6.1 mph /  9.8 km/h 7.9 mph /  12.7 km/h 64 % 0.0 in /  0 mm
17:15 1.4 °F /  -17 °C -4.7 °F /  -20.4 °C 1034.1 in /  35014.6 hPa East 3.5 mph /  5.6 km/h 7.6 mph /  12.2 km/h 64 % 0.0 in /  0 mm
17:20 1.2 °F /  -17.1 °C -4.7 °F /  -20.4 °C 1034.1 in /  35014.6 hPa ENE 4.0 mph /  6.4 km/h 6.1 mph /  9.8 km/h 65 % 0.0 in /  0 mm
17:25 1.1 °F /  -17.2 °C -4.6 °F /  -20.3 °C 1034.1 in /  35014.6 hPa NE 5.8 mph /  9.3 km/h 5.8 mph /  9.3 km/h 66 % 0.0 in /  0 mm
17:30 1.0 °F /  -17.2 °C -4.7 °F /  -20.4 °C 1034.1 in /  35014.6 hPa NE 6.1 mph /  9.8 km/h 6.9 mph /  11.1 km/h 66 % 0.0 in /  0 mm
17:35 0.9 °F /  -17.3 °C -4.4 °F /  -20.2 °C 1034.1 in /  35014.6 hPa ENE 6.9 mph /  11.1 km/h 7.6 mph /  12.2 km/h 68 % 0.0 in /  0 mm
17:40 0.9 °F /  -17.3 °C -4.4 °F /  -20.2 °C 1034.1 in /  35014.6 hPa NE 7.9 mph /  12.7 km/h 9.3 mph /  15 km/h 68 % 0.0 in /  0 mm
17:45 0.9 °F /  -17.3 °C -4.2 °F /  -20.1 °C 1034.1 in /  35014.6 hPa ENE 6.9 mph /  11.1 km/h 9.3 mph /  15 km/h 69 % 0.0 in /  0 mm
17:50 0.8 °F /  -17.3 °C -4.3 °F /  -20.2 °C 1034.1 in /  35014.6 hPa ENE 6.9 mph /  11.1 km/h 10.1 mph /  16.3 km/h 69 % 0.0 in /  0 mm
17:55 0.8 °F /  -17.3 °C -4.3 °F /  -20.2 °C 1034.1 in /  35014.6 hPa ENE 6.1 mph /  9.8 km/h 10.1 mph /  16.3 km/h 69 % 0.0 in /  0 mm
18:00 0.7 °F /  -17.4 °C -4.3 °F /  -20.2 °C 1034.1 in /  35014.6 hPa ENE 9.0 mph /  14.5 km/h 9.0 mph /  14.5 km/h 69 % 0.0 in /  0 mm
18:05 0.7 °F /  -17.4 °C -4.2 °F /  -20.1 °C 1034.1 in /  35014.6 hPa NE 10.5 mph /  16.9 km/h 11.6 mph /  18.7 km/h 70 % 0.0 in /  0 mm
18:10 0.9 °F /  -17.3 °C -4.0 °F /  -20 °C 1034.1 in /  35014.6 hPa ENE 10.5 mph /  16.9 km/h 13.0 mph /  20.9 km/h 70 % 0.0 in /  0 mm
18:15 0.9 °F /  -17.3 °C -4.0 °F /  -20 °C 1034.1 in /  35014.6 hPa NE 10.5 mph /  16.9 km/h 13.7 mph /  22 km/h 70 % 0.0 in /  0 mm
18:20 0.9 °F /  -17.3 °C -4.0 °F /  -20 °C 1034.1 in /  35014.6 hPa NE 13.0 mph /  20.9 km/h 13.7 mph /  22 km/h 70 % 0.0 in /  0 mm
18:25 0.9 °F /  -17.3 °C -4.0 °F /  -20 °C 1034.1 in /  35014.6 hPa NNE 12.2 mph /  19.6 km/h 15.8 mph /  25.4 km/h 70 % 0.0 in /  0 mm
18:30 0.7 °F /  -17.4 °C -4.2 °F /  -20.1 °C 1034.1 in /  35014.6 hPa ENE 14.0 mph /  22.5 km/h 16.6 mph /  26.7 km/h 70 % 0.0 in /  0 mm
18:35 0.7 °F /  -17.4 °C -4.2 °F /  -20.1 °C 1034.1 in /  35014.6 hPa NE 16.6 mph /  26.7 km/h 16.9 mph /  27.2 km/h 70 % 0.0 in /  0 mm
18:40 0.6 °F /  -17.4 °C -4.1 °F /  -20.1 °C 1034.1 in /  35014.6 hPa NE 17.2 mph /  27.7 km/h 17.2 mph /  27.7 km/h 71 % 0.0 in /  0 mm
18:45 0.6 °F /  -17.4 °C -3.7 °F /  -19.8 °C 1034.1 in /  35014.6 hPa North 15.1 mph /  24.3 km/h 17.7 mph /  28.5 km/h 73 % 0.0 in /  0 mm
18:50 0.5 °F /  -17.5 °C -3.6 °F /  -19.8 °C 1034.1 in /  35014.6 hPa NE 16.9 mph /  27.2 km/h 20.1 mph /  32.3 km/h 74 % 0.0 in /  0 mm
18:55 0.4 °F /  -17.6 °C -3.5 °F /  -19.7 °C 1033.1 in /  34980.8 hPa NE 14.0 mph /  22.5 km/h 20.1 mph /  32.3 km/h 75 % 0.0 in /  0 mm
19:00 0.4 °F /  -17.6 °C -3.3 °F /  -19.6 °C 1033.1 in /  34980.8 hPa NE 12.6 mph /  20.3 km/h 20.1 mph /  32.3 km/h 76 % 0.0 in /  0 mm
19:05 0.3 °F /  -17.6 °C -3.4 °F /  -19.7 °C 1033.1 in /  34980.8 hPa NE 13.0 mph /  20.9 km/h 18.0 mph /  29 km/h 76 % 0.0 in /  0 mm
19:10 0.3 °F /  -17.6 °C -3.3 °F /  -19.6 °C 1034.1 in /  35014.6 hPa NE 14.0 mph /  22.5 km/h 16.3 mph /  26.2 km/h 77 % 0.0 in /  0 mm
19:15 0.3 °F /  -17.6 °C -3.1 °F /  -19.5 °C 1034.1 in /  35014.6 hPa NE 13.7 mph /  22 km/h 16.6 mph /  26.7 km/h 78 % 0.0 in /  0 mm
19:20 0.3 °F /  -17.6 °C -3.1 °F /  -19.5 °C 1034.1 in /  35014.6 hPa NE 12.6 mph /  20.3 km/h 16.6 mph /  26.7 km/h 78 % 0.0 in /  0 mm
19:25 0.4 °F /  -17.6 °C -3.0 °F /  -19.4 °C 1034.1 in /  35014.6 hPa NE 11.9 mph /  19.2 km/h 16.6 mph /  26.7 km/h 78 % 0.0 in /  0 mm
19:30 0.4 °F /  -17.6 °C -3.0 °F /  -19.4 °C 1034.1 in /  35014.6 hPa NE 13.0 mph /  20.9 km/h 16.6 mph /  26.7 km/h 78 % 0.0 in /  0 mm
19:35 0.4 °F /  -17.6 °C -3.0 °F /  -19.4 °C 1034.1 in /  35014.6 hPa ENE 9.3 mph /  15 km/h 15.8 mph /  25.4 km/h 78 % 0.0 in /  0 mm
19:40 0.4 °F /  -17.6 °C -3.0 °F /  -19.4 °C 1034.1 in /  35014.6 hPa ENE 10.5 mph /  16.9 km/h 13.7 mph /  22 km/h 78 % 0.0 in /  0 mm
19:45 0.3 °F /  -17.6 °C -3.1 °F /  -19.5 °C 1034.1 in /  35014.6 hPa NE 11.6 mph /  18.7 km/h 13.7 mph /  22 km/h 78 % 0.0 in /  0 mm
19:50 0.3 °F /  -17.6 °C -3.1 °F /  -19.5 °C 1034.1 in /  35014.6 hPa ENE 12.6 mph /  20.3 km/h 15.8 mph /  25.4 km/h 78 % 0.0 in /  0 mm
19:55 0.3 °F /  -17.6 °C -3.1 °F /  -19.5 °C 1034.1 in /  35014.6 hPa NE 10.1 mph /  16.3 km/h 15.8 mph /  25.4 km/h 78 % 0.0 in /  0 mm
20:00 0.3 °F /  -17.6 °C -3.1 °F /  -19.5 °C 1034.1 in /  35014.6 hPa NE 12.2 mph /  19.6 km/h 15.4 mph /  24.8 km/h 78 % 0.0 in /  0 mm
20:05 0.3 °F /  -17.6 °C -3.3 °F /  -19.6 °C 1034.1 in /  35014.6 hPa NE 9.3 mph /  15 km/h 15.4 mph /  24.8 km/h 77 % 0.0 in /  0 mm
20:10 0.3 °F /  -17.6 °C -3.3 °F /  -19.6 °C 1034.1 in /  35014.6 hPa ENE 9.0 mph /  14.5 km/h 15.4 mph /  24.8 km/h 77 % 0.0 in /  0 mm
20:15 0.2 °F /  -17.7 °C -3.4 °F /  -19.7 °C 1034.1 in /  35014.6 hPa ENE 10.1 mph /  16.3 km/h 12.6 mph /  20.3 km/h 77 % 0.0 in /  0 mm
20:20 0.1 °F /  -17.7 °C -3.4 °F /  -19.7 °C 1034.1 in /  35014.6 hPa ENE 9.0 mph /  14.5 km/h 11.9 mph /  19.2 km/h 77 % 0.0 in /  0 mm
20:25 0.0 °F /  -17.8 °C -3.6 °F /  -19.8 °C 1034.1 in /  35014.6 hPa NE 6.4 mph /  10.3 km/h 11.9 mph /  19.2 km/h 77 % 0.0 in /  0 mm
20:30 -0.1 °F /  -17.8 °C -3.7 °F /  -19.8 °C 1034.1 in /  35014.6 hPa NE 9.0 mph /  14.5 km/h 10.5 mph /  16.9 km/h 77 % 0.0 in /  0 mm
20:35 -0.2 °F /  -17.9 °C -3.7 °F /  -19.8 °C 1034.1 in /  35014.6 hPa ENE 8.7 mph /  14 km/h 10.5 mph /  16.9 km/h 77 % 0.0 in /  0 mm
20:40 -0.3 °F /  -17.9 °C -3.8 °F /  -19.9 °C 1034.1 in /  35014.6 hPa ENE 5.8 mph /  9.3 km/h 10.1 mph /  16.3 km/h 77 % 0.0 in /  0 mm
20:46 -0.3 °F /  -17.9 °C -3.7 °F /  -19.8 °C 1034.1 in /  35014.6 hPa ENE 7.2 mph /  11.6 km/h 9.3 mph /  15 km/h 78 % 0.0 in /  0 mm
20:51 -0.4 °F /  -18 °C -3.8 °F /  -19.9 °C 1034.1 in /  35014.6 hPa ENE 7.6 mph /  12.2 km/h 9.7 mph /  15.6 km/h 78 % 0.0 in /  0 mm
20:56 -0.3 °F /  -17.9 °C -3.7 °F /  -19.8 °C 1034.1 in /  35014.6 hPa ENE 13.0 mph /  20.9 km/h 13.0 mph /  20.9 km/h 78 % 0.0 in /  0 mm
21:01 -0.3 °F /  -17.9 °C -3.7 °F /  -19.8 °C 1034.1 in /  35014.6 hPa ENE 9.7 mph /  15.6 km/h 13.0 mph /  20.9 km/h 78 % 0.0 in /  0 mm
21:06 -0.3 °F /  -17.9 °C -3.7 °F /  -19.8 °C 1034.1 in /  35014.6 hPa ENE 7.9 mph /  12.7 km/h 13.0 mph /  20.9 km/h 78 % 0.0 in /  0 mm
21:11 -0.3 °F /  -17.9 °C -3.8 °F /  -19.9 °C 1034.1 in /  35014.6 hPa NE 6.9 mph /  11.1 km/h 11.9 mph /  19.2 km/h 77 % 0.0 in /  0 mm
21:16 -0.4 °F /  -18 °C -3.9 °F /  -19.9 °C 1034.1 in /  35014.6 hPa ENE 7.9 mph /  12.7 km/h 9.3 mph /  15 km/h 77 % 0.0 in /  0 mm
21:21 -0.5 °F /  -18.1 °C -4.1 °F /  -20.1 °C 1034.1 in /  35014.6 hPa ENE 10.5 mph /  16.9 km/h 10.5 mph /  16.9 km/h 77 % 0.0 in /  0 mm
21:26 -0.5 °F /  -18.1 °C -4.1 °F /  -20.1 °C 1034.1 in /  35014.6 hPa ENE 6.4 mph /  10.3 km/h 10.5 mph /  16.9 km/h 77 % 0.0 in /  0 mm
21:31 -0.5 °F /  -18.1 °C -4.1 °F /  -20.1 °C 1034.1 in /  35014.6 hPa ENE 5.8 mph /  9.3 km/h 9.7 mph /  15.6 km/h 77 % 0.0 in /  0 mm
21:36 -0.6 °F /  -18.1 °C -4.1 °F /  -20.1 °C 1034.1 in /  35014.6 hPa ENE 6.4 mph /  10.3 km/h 9.0 mph /  14.5 km/h 77 % 0.0 in /  0 mm
21:41 -0.7 °F /  -18.2 °C -4.1 °F /  -20.1 °C 1034.1 in /  35014.6 hPa NE 5.5 mph /  8.9 km/h 9.3 mph /  15 km/h 78 % 0.0 in /  0 mm
21:46 -0.8 °F /  -18.2 °C -4.2 °F /  -20.1 °C 1034.1 in /  35014.6 hPa NE 6.1 mph /  9.8 km/h 9.3 mph /  15 km/h 78 % 0.0 in /  0 mm
21:51 -0.9 °F /  -18.3 °C -4.2 °F /  -20.1 °C 1034.1 in /  35014.6 hPa ENE 6.1 mph /  9.8 km/h 8.7 mph /  14 km/h 78 % 0.0 in /  0 mm
21:56 -1.0 °F /  -18.3 °C -4.3 °F /  -20.2 °C 1034.1 in /  35014.6 hPa ENE 4.3 mph /  6.9 km/h 7.6 mph /  12.2 km/h 78 % 0.0 in /  0 mm
22:01 -1.1 °F /  -18.4 °C -4.4 °F /  -20.2 °C 1034.1 in /  35014.6 hPa East 5.0 mph /  8 km/h 6.9 mph /  11.1 km/h 78 % 0.0 in /  0 mm
22:06 -1.1 °F /  -18.4 °C -4.4 °F /  -20.2 °C 1034.1 in /  35014.6 hPa ENE 4.7 mph /  7.6 km/h 6.9 mph /  11.1 km/h 78 % 0.0 in /  0 mm
22:11 -1.1 °F /  -18.4 °C -4.4 °F /  -20.2 °C 1034.1 in /  35014.6 hPa ENE 5.5 mph /  8.9 km/h 6.9 mph /  11.1 km/h 78 % 0.0 in /  0 mm
22:16 -1.2 °F /  -18.4 °C -4.5 °F /  -20.3 °C 1034.1 in /  35014.6 hPa NE 5.8 mph /  9.3 km/h 7.6 mph /  12.2 km/h 78 % 0.0 in /  0 mm
22:21 -1.2 °F /  -18.4 °C -4.5 °F /  -20.3 °C 1034.1 in /  35014.6 hPa NE 6.1 mph /  9.8 km/h 7.9 mph /  12.7 km/h 78 % 0.0 in /  0 mm
22:26 -1.2 °F /  -18.4 °C -4.5 °F /  -20.3 °C 1034.1 in /  35014.6 hPa NE 7.9 mph /  12.7 km/h 9.0 mph /  14.5 km/h 78 % 0.0 in /  0 mm
22:31 -1.2 °F /  -18.4 °C -4.3 °F /  -20.2 °C 1034.1 in /  35014.6 hPa ENE 5.8 mph /  9.3 km/h 9.0 mph /  14.5 km/h 79 % 0.0 in /  0 mm
22:36 -1.2 °F /  -18.4 °C -4.3 °F /  -20.2 °C 1034.1 in /  35014.6 hPa NE 8.7 mph /  14 km/h 9.0 mph /  14.5 km/h 79 % 0.0 in /  0 mm
22:41 -1.2 °F /  -18.4 °C -4.5 °F /  -20.3 °C 1034.1 in /  35014.6 hPa NE 9.0 mph /  14.5 km/h 9.3 mph /  15 km/h 78 % 0.0 in /  0 mm
22:46 -1.2 °F /  -18.4 °C -4.5 °F /  -20.3 °C 1034.1 in /  35014.6 hPa ENE 6.9 mph /  11.1 km/h 9.7 mph /  15.6 km/h 78 % 0.0 in /  0 mm
22:51 -1.2 °F /  -18.4 °C -4.5 °F /  -20.3 °C 1034.1 in /  35014.6 hPa NE 7.9 mph /  12.7 km/h 9.7 mph /  15.6 km/h 78 % 0.0 in /  0 mm
22:56 -1.2 °F /  -18.4 °C -4.5 °F /  -20.3 °C 1034.1 in /  35014.6 hPa East 10.5 mph /  16.9 km/h 10.5 mph /  16.9 km/h 78 % 0.0 in /  0 mm
23:01 -1.2 °F /  -18.4 °C -4.5 °F /  -20.3 °C 1034.1 in /  35014.6 hPa NE 9.7 mph /  15.6 km/h 10.5 mph /  16.9 km/h 78 % 0.0 in /  0 mm
23:06 -1.2 °F /  -18.4 °C -4.5 °F /  -20.3 °C 1034.1 in /  35014.6 hPa NE 9.0 mph /  14.5 km/h 10.1 mph /  16.3 km/h 78 % 0.0 in /  0 mm
23:11 -1.2 °F /  -18.4 °C -4.5 °F /  -20.3 °C 1034.1 in /  35014.6 hPa ENE 9.7 mph /  15.6 km/h 10.1 mph /  16.3 km/h 78 % 0.0 in /  0 mm
23:16 -1.3 °F /  -18.5 °C -4.6 °F /  -20.3 °C 1034.1 in /  35014.6 hPa ENE 8.7 mph /  14 km/h 10.1 mph /  16.3 km/h 78 % 0.0 in /  0 mm
23:21 -1.3 °F /  -18.5 °C -4.6 °F /  -20.3 °C 1034.1 in /  35014.6 hPa NE 5.5 mph /  8.9 km/h 9.3 mph /  15 km/h 78 % 0.0 in /  0 mm
23:26 -1.4 °F /  -18.6 °C -4.9 °F /  -20.5 °C 1034.1 in /  35014.6 hPa ENE 5.8 mph /  9.3 km/h 9.3 mph /  15 km/h 77 % 0.0 in /  0 mm
23:31 -1.4 °F /  -18.6 °C -5.0 °F /  -20.6 °C 1034.1 in /  35014.6 hPa ENE 6.1 mph /  9.8 km/h 6.9 mph /  11.1 km/h 77 % 0.0 in /  0 mm
23:36 -1.6 °F /  -18.7 °C -5.1 °F /  -20.6 °C 1034.1 in /  35014.6 hPa ENE 6.4 mph /  10.3 km/h 9.3 mph /  15 km/h 77 % 0.0 in /  0 mm
23:41 -1.6 °F /  -18.7 °C -4.9 °F /  -20.5 °C 1034.1 in /  35014.6 hPa NE 6.9 mph /  11.1 km/h 9.3 mph /  15 km/h 78 % 0.0 in /  0 mm
23:46 -1.4 °F /  -18.6 °C -4.8 °F /  -20.4 °C 1034.1 in /  35014.6 hPa NE 7.9 mph /  12.7 km/h 10.5 mph /  16.9 km/h 78 % 0.0 in /  0 mm
23:51 -1.6 °F /  -18.7 °C -4.9 °F /  -20.5 °C 1034.1 in /  35014.6 hPa NE 4.7 mph /  7.6 km/h 10.5 mph /  16.9 km/h 78 % 0.0 in /  0 mm
23:56 -1.8 °F /  -18.8 °C -5.1 °F /  -20.6 °C 1034.1 in /  35014.6 hPa NNE 6.1 mph /  9.8 km/h 7.9 mph /  12.7 km/h 78 % 0.0 in /  0 mm
Le Gheer Warneton
Courtoisie de Weather Underground - 2.25 mb

Mise a jour : 18/02/2018 06:24:11
Généré par Cumulus 1.9.4 (1099)